Time;durP1;ratioP1;P1;durP2;ratioP2;P2;SDS_P1;SDS_P2;PMS_P1;PMS_P2;Temp;Humidity;BMP_temperature;BMP_pressure;BME280_temperature;BME280_humidity;BME280_pressure;Samples;Min_cycle;Max_cycle;Signal;HPM_P1;HPM_P2
2021/12/17 00:03:34;;;;;;;4.95;4.20;;;;;;;20.69;nan;101505.53;20451277;28;99584;-59
2021/12/17 00:13:37;;;;;;;6.93;4.38;;;;;;;20.65;nan;101525.06;20424716;28;98111;-59
2021/12/17 00:48:22;;;;;;;4.38;3.80;;;;;;;20.54;nan;101507.25;20439905;28;101146;-57
2021/12/17 00:54:42;;;;;;;4.03;3.42;;;;;;;20.52;nan;101501.22;20416044;28;100925;-58
2021/12/17 01:04:51;;;;;;;4.43;3.67;;;;;;;20.48;nan;101494.44;20420862;28;98558;-58
2021/12/17 01:14:54;;;;;;;4.35;3.80;;;;;;;20.45;nan;101487.56;20437260;28;97845;-58
2021/12/17 01:25:04;;;;;;;4.23;3.30;;;;;;;20.44;nan;101493.75;20468304;28;98345;-58
2021/12/17 01:35:22;;;;;;;3.75;3.38;;;;;;;20.40;nan;101476.47;20441871;28;98396;-58
2021/12/17 01:45:28;;;;;;;4.82;2.88;;;;;;;20.39;nan;101463.41;20427257;28;101864;-58
2021/12/17 01:55:51;;;;;;;3.97;3.05;;;;;;;20.37;nan;101460.00;20477699;28;99280;-59
2021/12/17 02:05:53;;;;;;;3.43;2.87;;;;;;;20.34;nan;101452.31;20433650;28;98895;-57
2021/12/17 02:36:45;;;;;;;3.05;2.75;;;;;;;20.27;nan;101452.63;20467393;28;99850;-58
2021/12/17 02:46:46;;;;;;;2.70;2.50;;;;;;;20.27;nan;101438.63;20484539;28;100053;-59
2021/12/17 02:56:48;;;;;;;3.80;2.72;;;;;;;20.22;nan;101402.06;20430414;28;98471;-59
2021/12/17 03:06:49;;;;;;;2.95;2.33;;;;;;;20.21;nan;101410.06;20425312;28;99618;-58
2021/12/17 03:17:03;;;;;;;4.43;2.35;;;;;;;20.18;nan;101405.81;20427357;28;98883;-58
2021/12/17 03:27:04;;;;;;;3.28;2.28;;;;;;;20.17;nan;101417.28;20420333;28;98109;-58
2021/12/17 03:37:05;;;;;;;2.85;2.28;;;;;;;20.17;nan;101432.22;20471951;28;99762;-58
2021/12/17 03:47:07;;;;;;;3.58;2.33;;;;;;;20.12;nan;101429.84;20432846;27;99315;-57
2021/12/17 03:57:11;;;;;;;2.80;2.17;;;;;;;20.10;nan;101437.81;20425178;28;99125;-58
2021/12/17 04:07:14;;;;;;;4.03;2.20;;;;;;;20.08;nan;101428.31;20422997;28;100870;-58
2021/12/17 04:17:22;;;;;;;2.87;2.40;;;;;;;20.09;nan;101449.28;20447374;28;102428;-58
2021/12/17 04:27:23;;;;;;;2.55;2.05;;;;;;;20.10;nan;101450.09;20482321;28;100174;-58
2021/12/17 04:37:24;;;;;;;2.80;1.70;;;;;;;20.09;nan;101458.94;20428466;28;97608;-59
2021/12/17 04:57:46;;;;;;;2.28;1.75;;;;;;;20.06;nan;101446.81;20421341;28;99135;-58
2021/12/17 05:07:56;;;;;;;2.00;1.80;;;;;;;20.06;nan;101427.56;20425120;28;98517;-59
2021/12/17 05:28:16;;;;;;;6.75;2.00;;;;;;;20.28;nan;101416.66;20422077;28;97951;-58
2021/12/17 05:38:19;;;;;;;10.73;2.10;;;;;;;20.48;nan;101408.47;20435797;28;101344;-58
2021/12/17 05:48:21;;;;;;;14.93;5.60;;;;;;;20.63;nan;101409.34;20404806;28;101911;-57
2021/12/17 05:58:23;;;;;;;16.63;5.87;;;;;;;20.76;nan;101403.38;20427569;28;99675;-58
2021/12/17 06:08:23;;;;;;;15.20;5.70;;;;;;;20.83;nan;101399.47;20396929;28;98620;-57
2021/12/17 06:18:24;;;;;;;14.23;4.47;;;;;;;20.87;nan;101390.47;20419897;28;100064;-58
2021/12/17 06:28:24;;;;;;;12.93;4.20;;;;;;;20.89;nan;101396.44;20471714;28;101823;-58
2021/12/17 06:38:27;;;;;;;9.15;4.05;;;;;;;20.91;nan;101425.31;20428818;28;99314;-61
2021/12/17 06:48:32;;;;;;;8.15;2.78;;;;;;;20.94;nan;101419.88;20429348;28;100285;-60
2021/12/17 06:58:48;;;;;;;8.05;3.17;;;;;;;20.97;nan;101430.25;20432606;28;97844;-59
2021/12/17 07:39:29;;;;;;;3.30;2.20;;;;;;;21.19;nan;101485.09;20433077;28;98516;-58
2021/12/17 07:49:29;;;;;;;7.55;3.35;;;;;;;21.23;nan;101498.94;20424810;28;97361;-59
2021/12/17 07:59:30;;;;;;;6.75;4.20;;;;;;;21.25;nan;101499.66;20435888;28;98517;-59
2021/12/17 08:09:31;;;;;;;7.90;4.70;;;;;;;21.26;nan;101486.44;20429421;28;102072;-60
2021/12/17 08:30:07;;;;;;;12.80;8.35;;;;;;;21.32;nan;101519.44;20431705;28;101803;-59
2021/12/17 08:40:10;;;;;;;10.18;7.45;;;;;;;21.36;nan;101530.63;20444526;28;98705;-58
2021/12/17 08:50:12;;;;;;;13.57;9.23;;;;;;;21.38;nan;101520.88;20446681;28;98053;-58
2021/12/17 09:00:13;;;;;;;17.00;10.23;;;;;;;21.41;nan;101528.56;20436141;28;98016;-60
2021/12/17 09:10:19;;;;;;;16.60;10.00;;;;;;;21.43;nan;101527.56;20418180;28;99801;-58
2021/12/17 09:20:20;;;;;;;18.08;10.23;;;;;;;21.48;nan;101518.53;20402879;28;99513;-60
2021/12/17 09:30:21;;;;;;;16.90;10.48;;;;;;;21.53;nan;101513.81;20420262;28;98226;-59
2021/12/17 09:40:21;;;;;;;16.65;11.95;;;;;;;21.63;nan;101520.25;20440229;28;99508;-58
2021/12/17 09:50:22;;;;;;;19.65;11.98;;;;;;;21.69;nan;101519.00;20465462;28;101324;-59
2021/12/17 10:00:27;;;;;;;20.92;13.52;;;;;;;21.81;nan;101517.41;20451500;28;101525;-59
2021/12/17 10:10:39;;;;;;;21.10;13.63;;;;;;;21.82;nan;101525.22;20435467;28;101305;-59
2021/12/17 10:20:53;;;;;;;22.03;13.50;;;;;;;21.88;nan;101514.28;20433383;28;98884;-60
2021/12/17 10:30:55;;;;;;;19.13;13.75;;;;;;;21.95;nan;101521.81;20439087;28;104128;-59
2021/12/17 10:41:05;;;;;;;22.87;15.10;;;;;;;22.02;nan;101510.81;20440943;28;98203;-59
2021/12/17 10:51:13;;;;;;;20.27;13.48;;;;;;;22.12;nan;101502.28;20441264;28;98266;-60
2021/12/17 11:01:14;;;;;;;27.60;14.70;;;;;;;22.17;nan;101500.22;20441158;28;101903;-60
2021/12/17 11:11:16;;;;;;;39.77;20.60;;;;;;;22.26;nan;101493.50;20442983;28;99792;-59
2021/12/17 11:21:17;;;;;;;47.65;21.25;;;;;;;22.31;nan;101486.13;20439407;28;100597;-59
2021/12/17 11:31:18;;;;;;;48.92;20.08;;;;;;;22.38;nan;101479.53;20439712;28;98559;-60
2021/12/17 11:41:44;;;;;;;36.50;16.90;;;;;;;22.49;nan;101470.94;20431763;28;100873;-59
2021/12/17 11:51:54;;;;;;;56.75;28.67;;;;;;;22.64;nan;101464.63;20437459;28;102111;-60
2021/12/17 12:02:22;;;;;;;47.92;25.38;;;;;;;22.74;nan;101459.59;20427132;28;97509;-59
2021/12/17 12:12:45;;;;;;;42.00;21.80;;;;;;;22.85;nan;101459.69;20436012;28;99411;-59
2021/12/17 12:23:21;;;;;;;41.40;19.42;;;;;;;22.83;nan;101472.16;20427892;28;99246;-58
2021/12/17 12:33:21;;;;;;;38.58;18.95;;;;;;;22.80;nan;101467.09;20429091;28;99118;-58
2021/12/17 12:43:32;;;;;;;30.27;15.98;;;;;;;22.78;nan;101470.78;20438715;28;98542;-58
2021/12/17 12:53:34;;;;;;;30.73;14.18;;;;;;;22.80;nan;101475.00;20420233;28;98693;-58
2021/12/17 13:03:37;;;;;;;22.93;12.30;;;;;;;22.72;nan;101464.13;20422831;28;98795;-58
2021/12/17 13:13:53;;;;;;;29.40;10.95;;;;;;;22.70;nan;101452.81;20424405;28;101664;-59
2021/12/17 13:24:07;;;;;;;19.90;9.48;;;;;;;22.69;nan;101440.53;20429299;27;98826;-60
2021/12/17 13:34:10;;;;;;;19.95;7.50;;;;;;;22.43;nan;101437.03;20480951;28;97659;-58
2021/12/17 13:44:32;;;;;;;14.43;5.60;;;;;;;22.25;nan;101449.59;20422520;28;101247;-59
2021/12/17 13:54:34;;;;;;;12.13;5.00;;;;;;;22.35;nan;101463.88;20444578;28;101011;-58
2021/12/17 14:04:36;;;;;;;10.02;4.90;;;;;;;22.25;nan;101466.25;20424499;28;98487;-59
2021/12/17 14:14:36;;;;;;;11.73;4.55;;;;;;;22.29;nan;101465.13;20425551;28;99355;-58
2021/12/17 14:24:38;;;;;;;10.95;4.38;;;;;;;22.29;nan;101451.06;20414698;28;101749;-59
2021/12/17 14:34:40;;;;;;;9.25;4.25;;;;;;;22.28;nan;101449.41;20422893;28;99487;-59
2021/12/17 14:44:52;;;;;;;6.73;3.50;;;;;;;22.21;nan;101459.50;20423938;28;102252;-58
2021/12/17 15:05:20;;;;;;;8.02;2.95;;;;;;;22.14;nan;101448.50;20434877;28;101527;-57
2021/12/17 15:15:28;;;;;;;7.13;3.30;;;;;;;22.10;nan;101420.63;20436495;28;98469;-58
2021/12/17 15:25:29;;;;;;;8.93;3.22;;;;;;;22.03;nan;101436.00;20431041;28;101811;-58
2021/12/17 15:35:30;;;;;;;9.38;3.25;;;;;;;22.06;nan;101434.97;20430269;28;102325;-58
2021/12/17 15:45:37;;;;;;;8.10;2.92;;;;;;;21.99;nan;101434.50;20418839;28;99069;-58
2021/12/17 15:55:40;;;;;;;9.35;2.70;;;;;;;22.01;nan;101437.06;20416726;28;98057;-59
2021/12/17 16:05:41;;;;;;;11.90;2.97;;;;;;;21.78;nan;101436.72;20419649;28;101434;-56
2021/12/17 16:26:02;;;;;;;6.40;2.63;;;;;;;21.49;nan;101451.69;20418577;28;101539;-58
2021/12/17 16:36:06;;;;;;;13.68;6.05;;;;;;;21.51;nan;101455.09;20423588;28;100376;-57
2021/12/17 16:56:11;;;;;;;12.25;4.15;;;;;;;21.14;nan;101455.56;20406144;28;102531;-58
2021/12/17 17:06:12;;;;;;;;;;;;;;;21.28;nan;101463.44;20414971;28;99109;-59
2021/12/17 17:16:17;;;;;;;9.88;3.10;;;;;;;21.29;nan;101459.03;20432090;28;99164;-58
2021/12/17 17:26:18;;;;;;;8.82;2.90;;;;;;;21.38;nan;101455.00;20417620;28;98391;-59
2021/12/17 17:36:21;;;;;;;9.73;2.80;;;;;;;21.38;nan;101455.81;20415317;28;98192;-57
2021/12/17 17:46:22;;;;;;;10.93;3.40;;;;;;;21.56;nan;101467.06;20417552;28;99154;-57
2021/12/17 17:56:23;;;;;;;42.90;15.20;;;;;;;21.74;nan;101461.59;20402240;28;100909;-59
2021/12/17 18:06:24;;;;;;;41.08;14.43;;;;;;;21.80;nan;101455.06;20479312;28;101652;-58
2021/12/17 18:16:26;;;;;;;37.00;14.05;;;;;;;21.91;nan;101442.91;20513620;28;98427;-58
2021/12/17 18:26:26;;;;;;;29.67;10.60;;;;;;;21.98;nan;101446.00;20438589;28;102069;-58
2021/12/17 18:36:27;;;;;;;28.83;9.80;;;;;;;22.06;nan;101472.72;20461191;28;100260;-59
2021/12/17 18:46:27;;;;;;;22.65;8.73;;;;;;;22.22;nan;101479.66;20483811;28;98594;-59
2021/12/17 18:56:30;;;;;;;20.65;8.88;;;;;;;22.33;nan;101489.53;20514250;28;102738;-59
2021/12/17 19:06:31;;;;;;;21.73;8.00;;;;;;;22.45;nan;101485.25;20421184;28;102857;-59
2021/12/17 19:16:33;;;;;;;23.17;8.50;;;;;;;22.54;nan;101484.66;20411379;28;101231;-59
2021/12/17 19:26:34;;;;;;;20.90;7.83;;;;;;;22.57;nan;101487.09;20423242;28;99641;-59
2021/12/17 19:36:36;;;;;;;16.13;6.43;;;;;;;22.60;nan;101489.53;20423618;28;102539;-59
2021/12/17 19:46:48;;;;;;;18.80;6.30;;;;;;;22.55;nan;101487.19;20413634;28;101937;-59
2021/12/17 19:56:49;;;;;;;15.52;6.38;;;;;;;22.54;nan;101471.47;20413057;28;97629;-59
2021/12/17 20:06:51;;;;;;;21.63;5.60;;;;;;;22.54;nan;101467.03;20401036;28;98060;-58
2021/12/17 20:16:54;;;;;;;21.30;4.50;;;;;;;22.22;nan;101467.31;20405920;28;101113;-60
2021/12/17 20:26:55;;;;;;;10.73;4.20;;;;;;;22.20;nan;101479.78;20421206;28;102534;-60
2021/12/17 20:36:56;;;;;;;9.45;3.92;;;;;;;22.06;nan;101482.44;20501084;28;103947;-58
2021/12/17 20:46:58;;;;;;;8.75;4.25;;;;;;;22.00;nan;101499.50;20451790;28;100506;-58
2021/12/17 20:56:58;;;;;;;9.90;4.57;;;;;;;21.95;nan;101500.72;20409192;28;98738;-57
2021/12/17 21:07:02;;;;;;;8.18;4.10;;;;;;;21.89;nan;101518.63;20411583;28;100025;-57
2021/12/17 21:17:03;;;;;;;7.35;4.30;;;;;;;21.80;nan;101508.69;20406655;28;98165;-58
2021/12/17 21:27:05;;;;;;;9.48;5.28;;;;;;;;;;20398728;28;99717;-58
2021/12/17 21:37:06;;;;;;;8.02;5.40;;;;;;;21.74;nan;101520.44;20402713;28;99299;-58
2021/12/17 21:47:07;;;;;;;9.30;5.72;;;;;;;21.63;nan;101512.34;20450912;28;98311;-58
2021/12/17 21:57:10;;;;;;;10.32;6.18;;;;;;;21.59;nan;101511.69;20412877;28;99907;-58
2021/12/17 22:07:11;;;;;;;9.77;6.10;;;;;;;21.52;nan;101515.59;20413164;28;101231;-58
2021/12/17 22:17:11;;;;;;;9.88;7.10;;;;;;;21.48;nan;101505.34;20414831;28;99460;-58
2021/12/17 22:27:12;;;;;;;11.98;7.90;;;;;;;21.42;nan;101519.72;20414448;28;100831;-58
2021/12/17 22:37:13;;;;;;;14.20;8.02;;;;;;;21.39;nan;101541.84;20414305;28;100594;-58
2021/12/17 22:47:14;;;;;;;12.38;8.07;;;;;;;21.35;nan;101542.97;20434530;28;99016;-58
2021/12/17 22:57:15;;;;;;;10.70;8.20;;;;;;;21.28;nan;101545.13;20455001;28;98340;-59
2021/12/17 23:07:22;;;;;;;11.63;8.18;;;;;;;21.25;nan;101549.72;20413931;28;100026;-58
2021/12/17 23:17:27;;;;;;;11.45;8.00;;;;;;;21.20;nan;101550.00;20411787;28;98107;-57
2021/12/17 23:27:29;;;;;;;12.27;8.10;;;;;;;21.17;nan;101552.81;20458555;28;99483;-57
2021/12/17 23:37:29;;;;;;;12.40;8.43;;;;;;;21.14;nan;101547.75;20408044;28;100896;-58
2021/12/17 23:47:32;;;;;;;11.55;8.15;;;;;;;21.05;nan;101549.09;20404538;28;102979;-57
2021/12/17 23:57:32;;;;;;;10.63;7.77;;;;;;;21.03;nan;101536.97;20407473;28;103142;-58
